createdAt,value
2023-05-25T00:01:21.550Z,54.80
2023-05-25T00:03:49.697Z,54.87
2023-05-25T00:06:18.406Z,55.27
2023-05-25T00:08:46.681Z,56.67
2023-05-25T00:11:14.739Z,57.23
2023-05-25T00:13:44.205Z,58.30
2023-05-25T00:16:12.304Z,58.87
2023-05-25T00:18:40.399Z,59.87
2023-05-25T00:21:08.494Z,61.83
2023-05-25T00:23:36.854Z,61.63
2023-05-25T00:26:05.558Z,61.97
2023-05-25T00:28:33.763Z,63.03
2023-05-25T00:31:03.264Z,62.53
2023-05-25T00:33:31.576Z,63.17
2023-05-25T00:36:00.422Z,65.17
2023-05-25T00:38:28.654Z,64.60
2023-05-25T00:40:57.516Z,64.83
2023-05-25T00:43:25.645Z,64.47
2023-05-25T00:45:55.135Z,65.90
2023-05-25T00:48:26.703Z,66.00
2023-05-25T00:50:58.087Z,65.83
2023-05-25T00:53:27.852Z,66.77
2023-05-25T00:56:03.514Z,65.90
2023-05-25T00:58:35.922Z,64.37
2023-05-25T01:01:06.495Z,64.77
2023-05-25T01:03:38.431Z,66.13
2023-05-25T01:06:13.269Z,66.70
2023-05-25T01:08:45.536Z,66.37
2023-05-25T01:11:16.410Z,67.63
2023-05-25T01:13:46.187Z,67.17
2023-05-25T01:16:15.326Z,66.83
2023-05-25T01:18:44.905Z,66.40
2023-05-25T01:21:22.144Z,65.43
2023-05-25T01:23:56.497Z,64.73
2023-05-25T01:26:28.343Z,65.00
2023-05-25T01:28:59.448Z,65.17
2023-05-25T01:31:27.902Z,66.13
2023-05-25T01:33:57.691Z,65.33
2023-05-25T01:36:27.187Z,66.30
2023-05-25T01:38:55.718Z,65.43
2023-05-25T01:41:23.829Z,65.13
2023-05-25T01:43:52.425Z,64.60
2023-05-25T01:46:28.541Z,65.47
2023-05-25T01:49:04.179Z,68.23
2023-05-25T01:51:45.087Z,66.70
2023-05-25T01:54:20.264Z,68.40
2023-05-25T01:56:52.123Z,67.77
2023-05-25T01:59:22.800Z,67.47
2023-05-25T02:01:53.866Z,67.33
2023-05-25T02:04:23.218Z,68.53
2023-05-25T02:06:54.067Z,68.27
2023-05-25T02:09:22.151Z,68.63
2023-05-25T02:11:52.098Z,66.87
2023-05-25T02:14:20.233Z,67.67
2023-05-25T02:16:48.462Z,67.07
2023-05-25T02:19:16.577Z,68.73
2023-05-25T02:21:45.176Z,67.77
2023-05-25T02:24:14.838Z,66.30
2023-05-25T02:26:42.876Z,67.40
2023-05-25T02:29:11.761Z,66.50
2023-05-25T02:31:39.967Z,67.50
2023-05-25T02:34:08.103Z,67.73
2023-05-25T02:36:36.413Z,67.10
2023-05-25T02:39:06.254Z,69.17
2023-05-25T02:41:35.676Z,68.50
2023-05-25T02:44:03.740Z,68.87
2023-05-25T02:46:33.797Z,68.83
2023-05-25T02:49:02.260Z,69.20
2023-05-25T02:51:30.811Z,69.90
2023-05-25T02:54:01.354Z,70.97
2023-05-25T02:56:29.594Z,70.47
2023-05-25T02:59:00.389Z,70.67
2023-05-25T03:01:32.721Z,69.93
2023-05-25T03:04:01.909Z,70.83
2023-05-25T03:06:36.704Z,71.53
2023-05-25T03:09:15.149Z,71.77
2023-05-25T03:11:43.495Z,71.60
2023-05-25T03:14:17.194Z,71.50
2023-05-25T03:16:53.708Z,72.00
2023-05-25T03:19:22.642Z,71.33
2023-05-25T03:21:50.680Z,72.47
2023-05-25T03:24:20.329Z,70.53
2023-05-25T03:26:48.404Z,72.23
2023-05-25T03:29:18.836Z,71.30
2023-05-25T03:31:47.348Z,72.57
2023-05-25T03:34:16.144Z,71.67
2023-05-25T03:36:46.010Z,71.87
2023-05-25T03:39:15.317Z,73.30
2023-05-25T03:41:44.311Z,73.40
2023-05-25T03:44:12.804Z,73.63
2023-05-25T03:46:43.354Z,73.63
2023-05-25T03:49:14.182Z,74.23
2023-05-25T03:51:42.959Z,75.40
2023-05-25T03:54:11.726Z,76.53
2023-05-25T03:56:39.873Z,76.70
2023-05-25T03:59:08.079Z,77.93
2023-05-25T04:01:39.094Z,78.57
2023-05-25T04:04:08.866Z,74.83
2023-05-25T04:06:38.341Z,78.53
2023-05-25T04:09:07.903Z,80.20
2023-05-25T04:11:36.026Z,78.90
2023-05-25T04:14:04.189Z,79.70
2023-05-25T04:16:35.892Z,79.40
2023-05-25T04:19:05.144Z,80.80
2023-05-25T04:21:34.877Z,82.10
2023-05-25T04:24:03.558Z,82.27
2023-05-25T04:26:32.083Z,81.20
2023-05-25T04:29:02.470Z,81.20
2023-05-25T04:31:49.801Z,82.37
2023-05-25T04:34:34.239Z,84.90
2023-05-25T04:37:09.232Z,83.57
2023-05-25T04:39:38.332Z,84.37
2023-05-25T04:42:06.860Z,85.83
2023-05-25T04:44:36.292Z,82.10
2023-05-25T04:47:07.355Z,85.50
2023-05-25T04:49:36.152Z,86.13
2023-05-25T04:52:04.985Z,86.10
2023-05-25T04:54:34.395Z,83.63
2023-05-25T04:57:04.208Z,83.97
2023-05-25T04:59:33.174Z,83.87
2023-05-25T05:02:02.096Z,84.77
2023-05-25T05:04:30.577Z,83.30
2023-05-25T05:07:00.048Z,82.03
2023-05-25T05:09:30.699Z,78.77
2023-05-25T05:12:03.103Z,79.63
2023-05-25T05:14:36.481Z,79.37
2023-05-25T05:17:04.701Z,78.03
2023-05-25T05:19:33.849Z,79.30
2023-05-25T05:22:02.037Z,76.50
2023-05-25T05:24:30.276Z,78.97
2023-05-25T05:26:59.736Z,79.20
2023-05-25T05:29:34.339Z,75.80
2023-05-25T05:32:02.633Z,75.90
2023-05-25T05:34:31.705Z,76.50
2023-05-25T05:37:03.929Z,74.50
2023-05-25T05:39:32.095Z,74.57
2023-05-25T05:42:00.431Z,74.60
2023-05-25T05:44:29.440Z,74.40
2023-05-25T05:47:01.824Z,72.30
2023-05-25T05:49:32.018Z,72.00
2023-05-25T05:52:01.984Z,68.23
2023-05-25T05:54:30.179Z,70.03
2023-05-25T05:57:02.495Z,72.83
2023-05-25T05:59:30.594Z,73.17
2023-05-25T06:02:00.630Z,75.47
2023-05-25T06:04:29.236Z,70.40
2023-05-25T06:06:59.212Z,67.27
2023-05-25T06:09:27.621Z,67.33
2023-05-25T06:11:59.783Z,66.83
2023-05-25T06:14:28.875Z,66.27
2023-05-25T06:17:02.857Z,62.27
2023-05-25T06:19:31.203Z,65.57
2023-05-25T06:21:59.334Z,66.53
2023-05-25T06:24:27.473Z,69.33
2023-05-25T06:26:55.623Z,69.50
2023-05-25T06:29:23.813Z,67.83
2023-05-25T06:31:51.955Z,68.53
2023-05-25T06:34:21.597Z,66.73
2023-05-25T06:36:49.768Z,61.40
2023-05-25T06:39:17.923Z,63.17
2023-05-25T06:41:46.064Z,61.50
2023-05-25T06:44:19.572Z,63.60
2023-05-25T06:46:48.835Z,64.97
2023-05-25T06:49:17.414Z,64.37
2023-05-25T06:51:47.048Z,62.93
2023-05-25T06:54:15.494Z,61.95
2023-05-25T06:56:43.750Z,62.17
2023-05-25T06:59:11.872Z,64.43
2023-05-25T07:01:40.039Z,66.37
2023-05-25T07:04:08.143Z,64.03
2023-05-25T07:06:36.610Z,64.27
2023-05-25T07:09:06.156Z,63.20
2023-05-25T07:11:34.475Z,64.85
2023-05-25T07:14:02.623Z,64.00
2023-05-25T07:16:32.141Z,63.08
2023-05-25T07:19:00.627Z,57.30
2023-05-25T07:21:28.908Z,55.90
2023-05-25T07:23:57.057Z,53.83
2023-05-25T07:26:28.056Z,51.87
2023-05-25T07:28:56.132Z,50.47
2023-05-25T07:31:32.841Z,49.72
2023-05-25T07:34:08.537Z,49.40
2023-05-25T07:36:44.107Z,48.53
2023-05-25T07:39:12.911Z,45.55
2023-05-25T07:41:42.289Z,43.97
2023-05-25T07:44:10.327Z,43.53
2023-05-25T07:46:38.460Z,41.33
2023-05-25T07:49:12.016Z,39.58
2023-05-25T07:51:40.473Z,39.45
2023-05-25T07:54:08.557Z,37.85
2023-05-25T07:56:36.717Z,35.75
2023-05-25T07:59:06.202Z,35.80
2023-05-25T08:01:34.400Z,36.80
2023-05-25T08:04:02.711Z,36.47
2023-05-25T08:06:32.540Z,38.67
2023-05-25T08:09:00.586Z,38.15
2023-05-25T08:11:28.840Z,38.95
2023-05-25T08:13:56.926Z,39.05
2023-05-25T08:16:26.935Z,38.83
2023-05-25T08:18:55.020Z,36.45
2023-05-25T08:21:23.141Z,36.13
2023-05-25T08:23:51.714Z,34.95
2023-05-25T08:26:34.716Z,36.67
2023-05-25T08:29:06.570Z,34.67
2023-05-25T08:31:37.456Z,34.08
2023-05-25T08:34:05.596Z,33.33
2023-05-25T08:36:35.972Z,32.95
2023-05-25T08:39:04.815Z,32.58
2023-05-25T08:41:34.419Z,33.75
2023-05-25T08:44:06.390Z,32.40
2023-05-25T08:46:36.930Z,32.65
2023-05-25T08:49:10.067Z,33.65
2023-05-25T08:51:39.308Z,32.80
2023-05-25T08:54:10.334Z,32.95
2023-05-25T08:56:47.851Z,33.78
2023-05-25T08:59:24.951Z,35.22
2023-05-25T09:02:08.984Z,37.08
2023-05-25T09:04:37.456Z,35.70
2023-05-25T09:07:10.851Z,36.55
2023-05-25T09:09:41.236Z,33.97
2023-05-25T09:12:10.328Z,36.17
2023-05-25T09:14:45.521Z,36.58
2023-05-25T09:17:16.177Z,38.20
2023-05-25T09:19:44.617Z,38.08
2023-05-25T09:22:16.542Z,39.90
2023-05-25T09:24:46.073Z,41.55
2023-05-25T09:27:17.605Z,43.58
2023-05-25T09:29:46.451Z,44.78
2023-05-25T09:32:17.566Z,43.72
2023-05-25T09:34:45.900Z,46.85
2023-05-25T09:37:16.823Z,43.22
2023-05-25T09:39:47.956Z,43.55
2023-05-25T09:42:16.394Z,44.50
2023-05-25T09:44:44.858Z,44.88
2023-05-25T09:47:14.094Z,44.30
2023-05-25T09:49:44.625Z,45.80
2023-05-25T09:52:13.826Z,45.67
2023-05-25T09:54:45.446Z,46.50
2023-05-25T09:57:13.536Z,47.28
2023-05-25T09:59:42.702Z,48.75
2023-05-25T10:02:10.825Z,47.95
2023-05-25T10:04:39.008Z,46.30
2023-05-25T10:07:09.923Z,42.72
2023-05-25T10:09:42.496Z,43.50
2023-05-25T10:12:11.363Z,44.05
2023-05-25T10:14:39.846Z,42.83
2023-05-25T10:17:09.452Z,44.00
2023-05-25T10:19:42.066Z,42.45
2023-05-25T10:22:17.325Z,41.10
2023-05-25T10:24:54.975Z,42.53
2023-05-25T10:27:27.593Z,41.30
2023-05-25T10:29:58.036Z,39.97
2023-05-25T10:32:27.407Z,39.58
2023-05-25T10:34:58.414Z,39.95
2023-05-25T10:37:29.225Z,38.72
2023-05-25T10:39:58.963Z,38.67
2023-05-25T10:42:29.683Z,39.15
2023-05-25T10:44:58.873Z,38.95
2023-05-25T10:47:27.463Z,38.80
2023-05-25T10:49:58.031Z,38.47
2023-05-25T10:52:30.949Z,38.20
2023-05-25T10:55:01.999Z,38.70
2023-05-25T10:57:30.614Z,36.60
2023-05-25T11:00:06.438Z,36.92
2023-05-25T11:02:51.464Z,36.47
2023-05-25T11:05:34.433Z,37.10
2023-05-25T11:08:06.463Z,38.78
2023-05-25T11:10:54.186Z,41.25
2023-05-25T11:13:41.380Z,40.35
2023-05-25T11:16:24.610Z,39.97
2023-05-25T11:18:55.908Z,41.08
2023-05-25T11:21:40.905Z,41.42
2023-05-25T11:24:15.334Z,38.05
2023-05-25T11:26:56.011Z,39.45
2023-05-25T11:29:25.930Z,38.05
2023-05-25T11:31:56.107Z,36.97
2023-05-25T11:34:29.019Z,35.58
2023-05-25T11:37:01.757Z,36.75
2023-05-25T11:39:32.279Z,36.22
2023-05-25T11:42:05.094Z,37.38
2023-05-25T11:44:34.617Z,37.95
2023-05-25T11:47:06.108Z,38.10
2023-05-25T11:49:34.227Z,38.53
2023-05-25T11:52:07.179Z,37.63
2023-05-25T11:54:37.113Z,35.85
2023-05-25T11:57:06.509Z,35.80
2023-05-25T11:59:34.678Z,34.85
2023-05-25T12:02:04.153Z,34.33
2023-05-25T12:04:34.169Z,36.33
2023-05-25T12:07:05.839Z,35.63
2023-05-25T12:09:34.322Z,34.97
2023-05-25T12:12:05.131Z,34.88
2023-05-25T12:14:36.200Z,37.15
2023-05-25T12:17:04.700Z,34.53
2023-05-25T12:19:33.333Z,32.92
2023-05-25T12:22:01.502Z,34.42
2023-05-25T12:24:29.605Z,34.67
2023-05-25T12:26:59.314Z,35.80
2023-05-25T12:29:29.507Z,35.22
2023-05-25T12:32:04.538Z,36.28
2023-05-25T12:34:32.768Z,34.80
2023-05-25T12:37:01.641Z,35.10
2023-05-25T12:39:39.373Z,36.17
2023-05-25T12:42:15.364Z,35.97
2023-05-25T12:44:46.666Z,35.95
2023-05-25T12:47:16.833Z,36.85
2023-05-25T12:49:46.314Z,37.15
2023-05-25T12:52:33.298Z,36.47
2023-05-25T12:55:19.762Z,36.10
2023-05-25T12:57:52.549Z,35.15
2023-05-25T13:00:23.807Z,36.33
2023-05-25T13:02:52.406Z,37.15
2023-05-25T13:05:24.825Z,36.55
2023-05-25T13:07:53.446Z,35.47
2023-05-25T13:10:21.733Z,35.90
2023-05-25T13:12:51.890Z,35.42
2023-05-25T13:15:22.909Z,37.22
2023-05-25T13:17:52.152Z,35.75
2023-05-25T13:20:23.184Z,36.38
2023-05-25T13:22:52.760Z,37.53
2023-05-25T13:25:22.436Z,37.60
2023-05-25T13:27:52.839Z,36.63
2023-05-25T13:30:23.516Z,38.80
2023-05-25T13:32:52.936Z,36.40
2023-05-25T13:35:34.232Z,37.42
2023-05-25T13:38:02.454Z,35.83
2023-05-25T13:40:30.542Z,35.50
2023-05-25T13:42:58.673Z,35.65
2023-05-25T13:45:28.306Z,36.60
2023-05-25T13:47:56.525Z,34.88
2023-05-25T13:50:24.817Z,37.90
2023-05-25T13:52:53.062Z,36.33
2023-05-25T13:55:21.138Z,36.92
2023-05-25T13:57:49.380Z,39.05
2023-05-25T14:00:18.127Z,36.05
2023-05-25T14:02:47.752Z,36.38
2023-05-25T14:05:15.880Z,38.05
2023-05-25T14:07:44.600Z,43.47
2023-05-25T14:10:12.801Z,44.55
2023-05-25T14:12:41.739Z,44.00
2023-05-25T14:15:10.843Z,44.13
2023-05-25T14:17:39.106Z,42.47
2023-05-25T14:20:09.896Z,43.67
2023-05-25T14:22:38.116Z,41.75
2023-05-25T14:25:07.142Z,40.22
2023-05-25T14:27:35.227Z,40.88
2023-05-25T14:30:03.310Z,40.10
2023-05-25T14:32:31.527Z,36.88
2023-05-25T14:34:59.832Z,36.95
2023-05-25T14:37:29.286Z,39.40
2023-05-25T14:39:57.655Z,43.45
2023-05-25T14:42:25.813Z,42.65
2023-05-25T14:44:53.994Z,39.47
2023-05-25T14:47:22.065Z,35.75
2023-05-25T14:49:50.227Z,34.05
2023-05-25T14:52:18.413Z,37.90
2023-05-25T14:54:47.898Z,38.17
2023-05-25T14:57:17.016Z,36.30
2023-05-25T14:59:45.167Z,36.75
2023-05-25T15:02:13.307Z,36.10
2023-05-25T15:04:41.500Z,35.92
2023-05-25T15:07:11.533Z,33.92
2023-05-25T15:09:41.010Z,35.17
2023-05-25T15:12:10.442Z,34.20
2023-05-25T15:14:40.883Z,34.58
2023-05-25T15:17:09.090Z,31.27
2023-05-25T15:19:37.276Z,31.90
2023-05-25T15:22:05.830Z,33.15
2023-05-25T15:24:35.448Z,31.67
2023-05-25T15:27:05.170Z,30.73
2023-05-25T15:29:34.696Z,30.67
2023-05-25T15:32:02.860Z,30.50
2023-05-25T15:34:31.332Z,29.13
2023-05-25T15:37:00.342Z,28.88
2023-05-25T15:39:28.534Z,28.75
2023-05-25T15:41:56.612Z,32.08
2023-05-25T15:44:24.766Z,31.85
2023-05-25T15:46:54.231Z,31.98
2023-05-25T15:49:22.277Z,31.83
2023-05-25T15:51:53.276Z,30.15
2023-05-25T15:54:21.466Z,30.98
2023-05-25T15:56:49.621Z,30.25
2023-05-25T15:59:17.709Z,30.08
2023-05-25T16:01:45.844Z,30.77
2023-05-25T16:04:15.522Z,31.55
2023-05-25T16:06:43.783Z,30.55
2023-05-25T16:09:12.453Z,32.55
2023-05-25T16:11:40.621Z,32.50
2023-05-25T16:14:08.753Z,34.50
2023-05-25T16:16:36.989Z,34.35
2023-05-25T16:19:05.136Z,35.55
2023-05-25T16:21:37.764Z,37.45
2023-05-25T16:24:06.572Z,36.42
2023-05-25T16:26:35.216Z,36.78
2023-05-25T16:29:03.361Z,37.55
2023-05-25T16:31:31.501Z,37.63
2023-05-25T16:33:59.688Z,40.40
2023-05-25T16:36:35.672Z,39.83
2023-05-25T16:39:06.270Z,41.13
2023-05-25T16:41:34.390Z,42.10
2023-05-25T16:44:02.576Z,42.17
2023-05-25T16:46:30.826Z,42.83
2023-05-25T16:48:58.909Z,43.75
2023-05-25T16:51:27.119Z,43.97
2023-05-25T16:53:56.208Z,46.35
2023-05-25T16:56:26.404Z,47.33
2023-05-25T16:58:54.509Z,48.55
2023-05-25T17:01:22.684Z,49.80
2023-05-25T17:03:50.870Z,48.80
2023-05-25T17:06:19.109Z,50.97
2023-05-25T17:08:47.151Z,51.65
2023-05-25T17:11:15.310Z,51.60
2023-05-25T17:13:44.744Z,51.60
2023-05-25T17:16:12.803Z,54.42
2023-05-25T17:18:41.765Z,53.17
2023-05-25T17:21:09.860Z,54.10
2023-05-25T17:23:37.941Z,54.22
2023-05-25T17:26:06.417Z,53.22
2023-05-25T17:28:34.536Z,55.17
2023-05-25T17:31:04.251Z,54.08
2023-05-25T17:33:37.159Z,57.72
2023-05-25T17:36:06.563Z,57.47
2023-05-25T17:38:42.532Z,56.22
2023-05-25T17:41:11.656Z,57.33
2023-05-25T17:43:39.720Z,58.88
2023-05-25T17:46:09.352Z,57.45
2023-05-25T17:48:38.042Z,58.83
2023-05-25T17:51:06.138Z,58.00
2023-05-25T17:53:34.216Z,56.38
2023-05-25T17:56:02.307Z,59.20
2023-05-25T17:58:30.729Z,60.13
2023-05-25T18:00:59.035Z,59.55
2023-05-25T18:03:28.707Z,60.10
2023-05-25T18:05:56.865Z,59.05
2023-05-25T18:08:25.083Z,60.42
2023-05-25T18:10:53.157Z,61.17
2023-05-25T18:13:21.204Z,63.10
2023-05-25T18:15:49.513Z,63.60
2023-05-25T18:18:20.738Z,64.35
2023-05-25T18:20:50.318Z,64.88
2023-05-25T18:23:18.501Z,65.25
2023-05-25T18:25:46.797Z,67.00
2023-05-25T18:28:15.282Z,67.65
2023-05-25T18:30:43.689Z,69.28
2023-05-25T18:33:11.896Z,69.63
2023-05-25T18:35:39.970Z,72.55
2023-05-25T18:38:09.463Z,74.10
2023-05-25T18:40:37.523Z,74.57
2023-05-25T18:43:12.201Z,76.65
2023-05-25T18:45:40.700Z,77.85
2023-05-25T18:48:09.126Z,78.37
2023-05-25T18:50:37.733Z,80.37
2023-05-25T18:53:07.807Z,81.35
2023-05-25T18:55:37.416Z,81.63
2023-05-25T18:58:05.740Z,83.93
2023-05-25T19:00:34.330Z,83.57
2023-05-25T19:03:02.568Z,85.27
2023-05-25T19:05:30.717Z,85.40
2023-05-25T19:08:00.005Z,85.13
2023-05-25T19:10:28.834Z,84.13
2023-05-25T19:12:58.548Z,84.23
2023-05-25T19:15:26.961Z,83.47
2023-05-25T19:17:55.146Z,83.43
2023-05-25T19:20:23.318Z,84.13
2023-05-25T19:22:51.591Z,83.33
2023-05-25T19:25:19.870Z,85.63
2023-05-25T19:27:48.037Z,86.43
2023-05-25T19:30:17.766Z,86.27
2023-05-25T19:32:46.035Z,86.30
2023-05-25T19:35:14.939Z,87.17
2023-05-25T19:37:43.090Z,87.40
2023-05-25T19:40:13.325Z,87.53
2023-05-25T19:42:41.790Z,87.30
2023-05-25T19:45:10.372Z,87.17
2023-05-25T19:47:39.875Z,89.60
2023-05-25T19:50:09.932Z,89.30
2023-05-25T19:52:38.070Z,89.17
2023-05-25T19:55:06.848Z,90.47
2023-05-25T19:57:34.964Z,89.43
2023-05-25T20:00:03.783Z,90.67
2023-05-25T20:02:41.180Z,90.23
2023-05-25T20:05:10.262Z,90.00
2023-05-25T20:07:38.604Z,91.83
2023-05-25T20:10:07.547Z,87.97
2023-05-25T20:12:35.659Z,89.93
2023-05-25T20:15:03.787Z,87.67
2023-05-25T20:17:31.851Z,88.17
2023-05-25T20:20:01.748Z,89.67
2023-05-25T20:22:29.935Z,89.83
2023-05-25T20:24:59.799Z,89.43
2023-05-25T20:27:27.945Z,88.67
2023-05-25T20:29:56.201Z,89.03
2023-05-25T20:32:24.413Z,89.27
2023-05-25T20:34:52.552Z,89.90
2023-05-25T20:37:22.050Z,88.33
2023-05-25T20:39:50.172Z,90.60
2023-05-25T20:42:18.236Z,91.07
2023-05-25T20:44:46.306Z,92.30
2023-05-25T20:47:14.408Z,93.53
2023-05-25T20:49:42.655Z,92.17
2023-05-25T20:52:10.728Z,93.37
2023-05-25T20:54:44.608Z,92.23
2023-05-25T20:57:13.066Z,91.80
2023-05-25T20:59:41.334Z,94.07
2023-05-25T21:02:09.688Z,93.60
2023-05-25T21:04:37.711Z,94.83
2023-05-25T21:07:06.013Z,93.60
2023-05-25T21:09:34.114Z,94.43
2023-05-25T21:12:03.514Z,95.50
2023-05-25T21:14:31.557Z,95.20
2023-05-25T21:16:59.570Z,96.67
2023-05-25T21:19:27.693Z,96.13
2023-05-25T21:21:55.812Z,97.63
2023-05-25T21:24:23.992Z,97.60
2023-05-25T21:26:52.005Z,98.20
2023-05-25T21:29:21.632Z,98.17
2023-05-25T21:31:49.819Z,99.47
2023-05-25T21:34:17.880Z,101.33
2023-05-25T21:36:45.899Z,100.97
2023-05-25T21:39:14.033Z,100.87
2023-05-25T21:41:42.357Z,101.27
2023-05-25T21:44:10.438Z,100.73
2023-05-25T21:46:40.269Z,100.77
2023-05-25T21:49:08.343Z,102.30
2023-05-25T21:51:36.608Z,103.77
2023-05-25T21:54:04.923Z,103.67
2023-05-25T21:56:33.024Z,104.10
2023-05-25T21:59:01.197Z,105.60
2023-05-25T22:01:29.280Z,105.73
2023-05-25T22:03:58.743Z,107.47
2023-05-25T22:06:26.836Z,107.80
2023-05-25T22:08:54.917Z,106.90
2023-05-25T22:11:23.038Z,106.70
2023-05-25T22:13:51.122Z,108.17
2023-05-25T22:16:19.285Z,107.13
2023-05-25T22:18:47.424Z,108.03
2023-05-25T22:21:17.037Z,108.93
2023-05-25T22:23:45.113Z,109.30
2023-05-25T22:26:13.162Z,108.23
2023-05-25T22:28:41.186Z,109.30
2023-05-25T22:31:10.461Z,109.23
2023-05-25T22:33:38.465Z,110.97
2023-05-25T22:36:07.064Z,110.87
2023-05-25T22:38:36.716Z,111.87
2023-05-25T22:41:04.760Z,111.07
2023-05-25T22:43:32.816Z,112.67
2023-05-25T22:46:00.956Z,111.63
2023-05-25T22:48:29.134Z,111.07
2023-05-25T22:50:57.686Z,113.60
2023-05-25T22:53:25.761Z,112.00
2023-05-25T22:55:55.198Z,111.30
2023-05-25T22:58:23.283Z,110.87
2023-05-25T23:00:51.378Z,110.63
2023-05-25T23:03:19.498Z,109.13
2023-05-25T23:05:47.882Z,109.20
2023-05-25T23:08:16.068Z,109.47
2023-05-25T23:10:44.111Z,110.63
2023-05-25T23:13:14.919Z,110.73
2023-05-25T23:15:44.396Z,111.20
2023-05-25T23:18:12.635Z,113.63
2023-05-25T23:20:41.065Z,114.40
2023-05-25T23:23:09.167Z,112.63
2023-05-25T23:25:37.761Z,114.73
2023-05-25T23:28:06.274Z,116.40
2023-05-25T23:30:35.705Z,114.67
2023-05-25T23:33:03.790Z,115.30
2023-05-25T23:35:31.842Z,114.20
2023-05-25T23:38:01.851Z,115.03
2023-05-25T23:40:30.210Z,114.73
2023-05-25T23:43:05.027Z,114.83
2023-05-25T23:45:33.363Z,116.50
2023-05-25T23:48:02.859Z,113.50
2023-05-25T23:50:31.069Z,113.10
2023-05-25T23:52:59.100Z,112.60
2023-05-25T23:55:27.162Z,112.07
2023-05-25T23:57:55.192Z,114.50
